sensor_id;sensor_type;location;lat;lon;timestamp;temperature;humidity
44431;DHT22;30135;47.866;-4.222;2023-09-12T00:00:23;20.60;98.90
44431;DHT22;30135;47.866;-4.222;2023-09-12T00:02:49;20.60;98.90
44431;DHT22;30135;47.866;-4.222;2023-09-12T00:05:15;20.60;98.90
44431;DHT22;30135;47.866;-4.222;2023-09-12T00:07:41;20.60;98.90
44431;DHT22;30135;47.866;-4.222;2023-09-12T00:10:07;20.50;98.90
44431;DHT22;30135;47.866;-4.222;2023-09-12T00:12:33;20.50;98.90
44431;DHT22;30135;47.866;-4.222;2023-09-12T00:15:02;20.50;99.00
44431;DHT22;30135;47.866;-4.222;2023-09-12T00:17:29;20.50;99.00
44431;DHT22;30135;47.866;-4.222;2023-09-12T00:19:55;20.50;99.00
44431;DHT22;30135;47.866;-4.222;2023-09-12T00:22:24;20.50;99.00
44431;DHT22;30135;47.866;-4.222;2023-09-12T00:24:50;20.50;99.00
44431;DHT22;30135;47.866;-4.222;2023-09-12T00:27:16;20.50;99.00
44431;DHT22;30135;47.866;-4.222;2023-09-12T00:29:42;20.50;99.10
44431;DHT22;30135;47.866;-4.222;2023-09-12T00:32:08;20.50;99.10
44431;DHT22;30135;47.866;-4.222;2023-09-12T00:34:34;20.50;99.20
44431;DHT22;30135;47.866;-4.222;2023-09-12T00:36:59;20.50;99.30
44431;DHT22;30135;47.866;-4.222;2023-09-12T00:39:25;20.50;99.30
44431;DHT22;30135;47.866;-4.222;2023-09-12T00:41:51;20.50;99.40
44431;DHT22;30135;47.866;-4.222;2023-09-12T00:44:17;20.50;99.40
44431;DHT22;30135;47.866;-4.222;2023-09-12T00:46:44;20.50;99.40
44431;DHT22;30135;47.866;-4.222;2023-09-12T00:49:12;20.50;99.40
44431;DHT22;30135;47.866;-4.222;2023-09-12T00:51:43;20.50;99.40
44431;DHT22;30135;47.866;-4.222;2023-09-12T00:54:10;20.50;99.50
44431;DHT22;30135;47.866;-4.222;2023-09-12T00:56:36;20.50;99.40
44431;DHT22;30135;47.866;-4.222;2023-09-12T00:59:06;20.50;99.40
44431;DHT22;30135;47.866;-4.222;2023-09-12T01:01:32;20.50;99.40
44431;DHT22;30135;47.866;-4.222;2023-09-12T01:03:59;20.40;99.40
44431;DHT22;30135;47.866;-4.222;2023-09-12T01:06:29;20.40;99.40
44431;DHT22;30135;47.866;-4.222;2023-09-12T01:08:57;20.40;99.40
44431;DHT22;30135;47.866;-4.222;2023-09-12T01:11:23;20.40;99.40
44431;DHT22;30135;47.866;-4.222;2023-09-12T01:13:49;20.40;99.40
44431;DHT22;30135;47.866;-4.222;2023-09-12T01:16:15;20.40;99.40
44431;DHT22;30135;47.866;-4.222;2023-09-12T01:18:41;20.40;99.50
44431;DHT22;30135;47.866;-4.222;2023-09-12T01:29:38;20.40;99.70
44431;DHT22;30135;47.866;-4.222;2023-09-12T01:32:05;20.30;99.70
44431;DHT22;30135;47.866;-4.222;2023-09-12T01:34:35;20.40;99.70
44431;DHT22;30135;47.866;-4.222;2023-09-12T01:37:00;20.30;99.70
44431;DHT22;30135;47.866;-4.222;2023-09-12T01:39:26;20.30;99.70
44431;DHT22;30135;47.866;-4.222;2023-09-12T01:41:53;20.30;99.70
44431;DHT22;30135;47.866;-4.222;2023-09-12T01:44:21;20.30;99.70
44431;DHT22;30135;47.866;-4.222;2023-09-12T01:46:49;20.30;99.70
44431;DHT22;30135;47.866;-4.222;2023-09-12T01:49:17;20.40;99.90
44431;DHT22;30135;47.866;-4.222;2023-09-12T01:51:45;20.30;99.80
44431;DHT22;30135;47.866;-4.222;2023-09-12T01:54:12;20.30;99.90
44431;DHT22;30135;47.866;-4.222;2023-09-12T01:56:38;20.30;99.90
44431;DHT22;30135;47.866;-4.222;2023-09-12T01:59:05;20.30;99.90
44431;DHT22;30135;47.866;-4.222;2023-09-12T02:01:31;20.40;99.90
44431;DHT22;30135;47.866;-4.222;2023-09-12T02:03:57;20.40;99.90
44431;DHT22;30135;47.866;-4.222;2023-09-12T02:06:23;20.40;99.90
44431;DHT22;30135;47.866;-4.222;2023-09-12T02:08:49;20.40;99.90
44431;DHT22;30135;47.866;-4.222;2023-09-12T02:11:15;20.30;99.90
44431;DHT22;30135;47.866;-4.222;2023-09-12T02:13:41;20.40;99.90
44431;DHT22;30135;47.866;-4.222;2023-09-12T02:16:07;20.40;99.90
44431;DHT22;30135;47.866;-4.222;2023-09-12T02:18:33;20.40;99.90
44431;DHT22;30135;47.866;-4.222;2023-09-12T02:20:59;20.40;99.90
44431;DHT22;30135;47.866;-4.222;2023-09-12T02:23:25;20.40;99.90
44431;DHT22;30135;47.866;-4.222;2023-09-12T02:25:51;20.40;99.90
44431;DHT22;30135;47.866;-4.222;2023-09-12T02:28:17;20.40;99.90
44431;DHT22;30135;47.866;-4.222;2023-09-12T02:30:42;20.40;99.90
44431;DHT22;30135;47.866;-4.222;2023-09-12T02:33:08;20.40;99.90
44431;DHT22;30135;47.866;-4.222;2023-09-12T02:35:34;20.40;99.90
44431;DHT22;30135;47.866;-4.222;2023-09-12T02:38:00;20.40;99.90
44431;DHT22;30135;47.866;-4.222;2023-09-12T02:40:26;20.40;99.90
44431;DHT22;30135;47.866;-4.222;2023-09-12T02:42:52;20.30;99.90
44431;DHT22;30135;47.866;-4.222;2023-09-12T02:45:18;20.30;99.90
44431;DHT22;30135;47.866;-4.222;2023-09-12T02:47:44;20.40;99.90
44431;DHT22;30135;47.866;-4.222;2023-09-12T02:50:11;20.30;99.90
44431;DHT22;30135;47.866;-4.222;2023-09-12T02:52:37;20.30;99.90
44431;DHT22;30135;47.866;-4.222;2023-09-12T02:55:04;20.30;99.90
44431;DHT22;30135;47.866;-4.222;2023-09-12T02:57:30;20.30;99.90
44431;DHT22;30135;47.866;-4.222;2023-09-12T02:59:56;20.30;99.90
44431;DHT22;30135;47.866;-4.222;2023-09-12T03:02:24;20.30;99.90
44431;DHT22;30135;47.866;-4.222;2023-09-12T03:04:50;20.40;99.90
44431;DHT22;30135;47.866;-4.222;2023-09-12T03:07:16;20.30;99.90
44431;DHT22;30135;47.866;-4.222;2023-09-12T03:09:47;20.30;99.90
44431;DHT22;30135;47.866;-4.222;2023-09-12T03:12:14;20.30;99.90
44431;DHT22;30135;47.866;-4.222;2023-09-12T03:14:39;20.40;99.90
44431;DHT22;30135;47.866;-4.222;2023-09-12T03:17:06;20.30;99.90
44431;DHT22;30135;47.866;-4.222;2023-09-12T03:19:32;20.30;99.90
44431;DHT22;30135;47.866;-4.222;2023-09-12T03:21:58;20.30;99.90
44431;DHT22;30135;47.866;-4.222;2023-09-12T03:24:23;20.40;99.90
44431;DHT22;30135;47.866;-4.222;2023-09-12T03:26:51;20.30;99.90
44431;DHT22;30135;47.866;-4.222;2023-09-12T03:29:17;20.30;99.90
44431;DHT22;30135;47.866;-4.222;2023-09-12T03:31:43;20.30;99.90
44431;DHT22;30135;47.866;-4.222;2023-09-12T03:34:09;20.30;99.90
44431;DHT22;30135;47.866;-4.222;2023-09-12T03:36:35;20.30;99.90
44431;DHT22;30135;47.866;-4.222;2023-09-12T03:39:01;20.30;99.90
44431;DHT22;30135;47.866;-4.222;2023-09-12T03:41:27;20.30;99.90
44431;DHT22;30135;47.866;-4.222;2023-09-12T03:43:54;20.30;99.90
44431;DHT22;30135;47.866;-4.222;2023-09-12T03:46:21;20.30;99.90
44431;DHT22;30135;47.866;-4.222;2023-09-12T03:48:47;20.30;99.90
44431;DHT22;30135;47.866;-4.222;2023-09-12T03:51:13;20.30;99.90
44431;DHT22;30135;47.866;-4.222;2023-09-12T03:53:39;20.30;99.90
44431;DHT22;30135;47.866;-4.222;2023-09-12T03:56:05;20.30;99.90
44431;DHT22;30135;47.866;-4.222;2023-09-12T03:58:31;20.30;99.90
44431;DHT22;30135;47.866;-4.222;2023-09-12T04:00:57;20.30;99.90
44431;DHT22;30135;47.866;-4.222;2023-09-12T04:03:23;20.20;99.90
44431;DHT22;30135;47.866;-4.222;2023-09-12T04:05:50;20.20;99.90
44431;DHT22;30135;47.866;-4.222;2023-09-12T04:08:16;20.20;99.90
44431;DHT22;30135;47.866;-4.222;2023-09-12T04:10:43;20.20;99.90
44431;DHT22;30135;47.866;-4.222;2023-09-12T04:13:09;20.20;99.90
44431;DHT22;30135;47.866;-4.222;2023-09-12T04:15:35;20.20;99.90
44431;DHT22;30135;47.866;-4.222;2023-09-12T04:18:00;20.20;99.90
44431;DHT22;30135;47.866;-4.222;2023-09-12T04:20:26;20.20;99.90
44431;DHT22;30135;47.866;-4.222;2023-09-12T04:22:52;20.20;99.90
44431;DHT22;30135;47.866;-4.222;2023-09-12T04:25:18;20.20;99.90
44431;DHT22;30135;47.866;-4.222;2023-09-12T04:27:45;20.20;99.90
44431;DHT22;30135;47.866;-4.222;2023-09-12T04:30:11;20.20;99.90
44431;DHT22;30135;47.866;-4.222;2023-09-12T04:32:37;20.20;99.90
44431;DHT22;30135;47.866;-4.222;2023-09-12T04:35:03;20.20;99.90
44431;DHT22;30135;47.866;-4.222;2023-09-12T04:37:30;20.20;99.90
44431;DHT22;30135;47.866;-4.222;2023-09-12T04:39:56;20.20;99.90
44431;DHT22;30135;47.866;-4.222;2023-09-12T04:42:22;20.20;99.90
44431;DHT22;30135;47.866;-4.222;2023-09-12T04:44:48;20.20;99.90
44431;DHT22;30135;47.866;-4.222;2023-09-12T04:47:14;20.20;99.90
44431;DHT22;30135;47.866;-4.222;2023-09-12T04:49:41;20.20;99.90
44431;DHT22;30135;47.866;-4.222;2023-09-12T04:52:08;20.20;99.90
44431;DHT22;30135;47.866;-4.222;2023-09-12T04:54:34;20.20;99.90
44431;DHT22;30135;47.866;-4.222;2023-09-12T04:57:00;20.20;99.90
44431;DHT22;30135;47.866;-4.222;2023-09-12T04:59:26;20.20;99.90
44431;DHT22;30135;47.866;-4.222;2023-09-12T05:01:52;20.20;99.90
44431;DHT22;30135;47.866;-4.222;2023-09-12T05:04:18;20.20;99.90
44431;DHT22;30135;47.866;-4.222;2023-09-12T05:06:44;20.20;99.90
44431;DHT22;30135;47.866;-4.222;2023-09-12T05:09:10;20.30;99.90
44431;DHT22;30135;47.866;-4.222;2023-09-12T05:11:36;20.30;99.90
44431;DHT22;30135;47.866;-4.222;2023-09-12T05:14:02;20.30;99.90
44431;DHT22;30135;47.866;-4.222;2023-09-12T05:16:29;20.30;99.90
44431;DHT22;30135;47.866;-4.222;2023-09-12T05:18:55;20.30;99.90
44431;DHT22;30135;47.866;-4.222;2023-09-12T05:21:21;20.30;99.90
44431;DHT22;30135;47.866;-4.222;2023-09-12T05:23:47;20.30;99.90
44431;DHT22;30135;47.866;-4.222;2023-09-12T05:26:13;20.30;99.90
44431;DHT22;30135;47.866;-4.222;2023-09-12T05:28:40;20.30;99.90
44431;DHT22;30135;47.866;-4.222;2023-09-12T05:31:06;20.30;99.90
44431;DHT22;30135;47.866;-4.222;2023-09-12T05:33:32;20.30;99.90
44431;DHT22;30135;47.866;-4.222;2023-09-12T05:35:58;20.30;99.90
44431;DHT22;30135;47.866;-4.222;2023-09-12T05:38:24;20.30;99.90
44431;DHT22;30135;47.866;-4.222;2023-09-12T05:40:50;20.30;99.90
44431;DHT22;30135;47.866;-4.222;2023-09-12T05:43:17;20.30;99.90
44431;DHT22;30135;47.866;-4.222;2023-09-12T05:45:44;20.30;99.90
44431;DHT22;30135;47.866;-4.222;2023-09-12T05:48:09;20.30;99.90
44431;DHT22;30135;47.866;-4.222;2023-09-12T05:50:38;20.30;99.90
44431;DHT22;30135;47.866;-4.222;2023-09-12T05:53:05;20.30;99.90
44431;DHT22;30135;47.866;-4.222;2023-09-12T05:55:30;20.30;99.90
44431;DHT22;30135;47.866;-4.222;2023-09-12T05:57:56;20.30;99.90
44431;DHT22;30135;47.866;-4.222;2023-09-12T06:00:22;20.30;99.90
44431;DHT22;30135;47.866;-4.222;2023-09-12T06:02:48;20.30;99.90
44431;DHT22;30135;47.866;-4.222;2023-09-12T06:05:15;20.40;99.90
44431;DHT22;30135;47.866;-4.222;2023-09-12T06:07:41;20.30;99.90
44431;DHT22;30135;47.866;-4.222;2023-09-12T06:10:08;20.30;99.90
44431;DHT22;30135;47.866;-4.222;2023-09-12T06:12:35;20.30;99.90
44431;DHT22;30135;47.866;-4.222;2023-09-12T06:15:02;20.30;99.90
44431;DHT22;30135;47.866;-4.222;2023-09-12T06:17:30;20.30;99.90
44431;DHT22;30135;47.866;-4.222;2023-09-12T06:19:56;20.30;99.90
44431;DHT22;30135;47.866;-4.222;2023-09-12T06:22:22;20.30;99.90
44431;DHT22;30135;47.866;-4.222;2023-09-12T06:24:51;20.30;99.90
44431;DHT22;30135;47.866;-4.222;2023-09-12T06:27:17;20.30;99.90
44431;DHT22;30135;47.866;-4.222;2023-09-12T06:29:47;20.30;99.90
44431;DHT22;30135;47.866;-4.222;2023-09-12T06:32:15;20.30;99.90
44431;DHT22;30135;47.866;-4.222;2023-09-12T06:34:41;20.30;99.90
44431;DHT22;30135;47.866;-4.222;2023-09-12T06:37:08;20.30;99.90
44431;DHT22;30135;47.866;-4.222;2023-09-12T06:39:34;20.30;99.90
44431;DHT22;30135;47.866;-4.222;2023-09-12T06:42:00;20.30;99.90
44431;DHT22;30135;47.866;-4.222;2023-09-12T06:44:26;20.30;99.90
44431;DHT22;30135;47.866;-4.222;2023-09-12T06:46:54;20.30;99.90
44431;DHT22;30135;47.866;-4.222;2023-09-12T06:49:20;20.30;99.90
44431;DHT22;30135;47.866;-4.222;2023-09-12T06:51:45;20.30;99.90
44431;DHT22;30135;47.866;-4.222;2023-09-12T06:54:11;20.30;99.90
44431;DHT22;30135;47.866;-4.222;2023-09-12T06:56:41;20.30;99.90
44431;DHT22;30135;47.866;-4.222;2023-09-12T06:59:08;20.30;99.90
44431;DHT22;30135;47.866;-4.222;2023-09-12T07:01:34;20.30;99.90
44431;DHT22;30135;47.866;-4.222;2023-09-12T07:04:00;20.30;99.90
44431;DHT22;30135;47.866;-4.222;2023-09-12T07:06:27;20.30;99.90
44431;DHT22;30135;47.866;-4.222;2023-09-12T07:08:53;20.40;99.90
44431;DHT22;30135;47.866;-4.222;2023-09-12T07:11:18;20.40;99.90
44431;DHT22;30135;47.866;-4.222;2023-09-12T07:13:45;20.40;99.90
44431;DHT22;30135;47.866;-4.222;2023-09-12T07:16:12;20.40;99.90
44431;DHT22;30135;47.866;-4.222;2023-09-12T07:18:38;20.40;99.90
44431;DHT22;30135;47.866;-4.222;2023-09-12T07:21:04;20.50;99.90
44431;DHT22;30135;47.866;-4.222;2023-09-12T07:23:32;20.50;99.90
44431;DHT22;30135;47.866;-4.222;2023-09-12T07:25:58;20.50;99.90
44431;DHT22;30135;47.866;-4.222;2023-09-12T07:28:28;20.50;99.90
44431;DHT22;30135;47.866;-4.222;2023-09-12T07:30:55;20.50;99.90
44431;DHT22;30135;47.866;-4.222;2023-09-12T07:33:21;20.50;99.90
44431;DHT22;30135;47.866;-4.222;2023-09-12T07:35:49;20.50;99.90
44431;DHT22;30135;47.866;-4.222;2023-09-12T07:38:18;20.60;99.90
44431;DHT22;30135;47.866;-4.222;2023-09-12T07:40:45;20.60;99.90
44431;DHT22;30135;47.866;-4.222;2023-09-12T07:43:11;20.60;99.90
44431;DHT22;30135;47.866;-4.222;2023-09-12T07:45:37;20.60;99.90
44431;DHT22;30135;47.866;-4.222;2023-09-12T07:48:07;20.60;99.90
44431;DHT22;30135;47.866;-4.222;2023-09-12T07:50:35;20.70;99.90
44431;DHT22;30135;47.866;-4.222;2023-09-12T07:53:04;20.70;99.90
44431;DHT22;30135;47.866;-4.222;2023-09-12T07:55:31;20.70;99.90
44431;DHT22;30135;47.866;-4.222;2023-09-12T07:58:02;20.70;99.90
44431;DHT22;30135;47.866;-4.222;2023-09-12T08:00:28;20.70;99.90
44431;DHT22;30135;47.866;-4.222;2023-09-12T08:02:54;20.70;99.90
44431;DHT22;30135;47.866;-4.222;2023-09-12T08:05:20;20.80;99.90
44431;DHT22;30135;47.866;-4.222;2023-09-12T08:07:46;20.80;99.90
44431;DHT22;30135;47.866;-4.222;2023-09-12T08:10:12;20.80;99.90
44431;DHT22;30135;47.866;-4.222;2023-09-12T08:12:38;20.80;99.90
44431;DHT22;30135;47.866;-4.222;2023-09-12T08:15:05;20.80;99.90
44431;DHT22;30135;47.866;-4.222;2023-09-12T08:17:32;20.90;99.90
44431;DHT22;30135;47.866;-4.222;2023-09-12T08:19:58;20.90;99.90
44431;DHT22;30135;47.866;-4.222;2023-09-12T08:22:24;20.90;99.90
44431;DHT22;30135;47.866;-4.222;2023-09-12T08:24:50;20.90;99.90
44431;DHT22;30135;47.866;-4.222;2023-09-12T08:27:16;20.90;99.90
44431;DHT22;30135;47.866;-4.222;2023-09-12T08:29:42;20.90;99.90
44431;DHT22;30135;47.866;-4.222;2023-09-12T08:32:10;20.90;99.90
44431;DHT22;30135;47.866;-4.222;2023-09-12T08:34:36;21.00;99.90
44431;DHT22;30135;47.866;-4.222;2023-09-12T08:37:02;21.00;99.90
44431;DHT22;30135;47.866;-4.222;2023-09-12T08:39:36;21.00;99.90
44431;DHT22;30135;47.866;-4.222;2023-09-12T08:42:07;21.00;99.90
44431;DHT22;30135;47.866;-4.222;2023-09-12T08:44:36;21.00;99.90
44431;DHT22;30135;47.866;-4.222;2023-09-12T08:47:03;21.00;99.90
44431;DHT22;30135;47.866;-4.222;2023-09-12T08:49:34;21.00;99.90
44431;DHT22;30135;47.866;-4.222;2023-09-12T08:52:06;21.00;99.90
44431;DHT22;30135;47.866;-4.222;2023-09-12T08:54:33;21.00;99.90
44431;DHT22;30135;47.866;-4.222;2023-09-12T08:57:01;21.00;99.90
44431;DHT22;30135;47.866;-4.222;2023-09-12T08:59:33;21.00;99.90
44431;DHT22;30135;47.866;-4.222;2023-09-12T09:02:00;21.00;99.90
44431;DHT22;30135;47.866;-4.222;2023-09-12T09:04:29;21.00;99.90
44431;DHT22;30135;47.866;-4.222;2023-09-12T09:06:57;21.00;99.90
44431;DHT22;30135;47.866;-4.222;2023-09-12T09:09:23;21.10;99.90
44431;DHT22;30135;47.866;-4.222;2023-09-12T09:11:50;21.10;99.90
44431;DHT22;30135;47.866;-4.222;2023-09-12T09:14:16;21.10;99.90
44431;DHT22;30135;47.866;-4.222;2023-09-12T09:16:42;21.20;99.90
44431;DHT22;30135;47.866;-4.222;2023-09-12T09:19:08;21.20;99.90
44431;DHT22;30135;47.866;-4.222;2023-09-12T09:21:37;21.20;99.90
44431;DHT22;30135;47.866;-4.222;2023-09-12T09:24:14;21.20;99.90
44431;DHT22;30135;47.866;-4.222;2023-09-12T09:26:46;21.20;99.80
44431;DHT22;30135;47.866;-4.222;2023-09-12T09:29:18;21.30;99.70
44431;DHT22;30135;47.866;-4.222;2023-09-12T09:31:50;21.30;99.60
44431;DHT22;30135;47.866;-4.222;2023-09-12T09:34:21;21.30;99.40
44431;DHT22;30135;47.866;-4.222;2023-09-12T09:36:50;21.30;99.40
44431;DHT22;30135;47.866;-4.222;2023-09-12T09:39:19;21.30;99.30
44431;DHT22;30135;47.866;-4.222;2023-09-12T09:41:50;21.30;99.30
44431;DHT22;30135;47.866;-4.222;2023-09-12T09:44:18;21.40;99.20
44431;DHT22;30135;47.866;-4.222;2023-09-12T09:46:45;21.40;99.20
44431;DHT22;30135;47.866;-4.222;2023-09-12T09:49:14;21.40;99.10
44431;DHT22;30135;47.866;-4.222;2023-09-12T09:51:41;21.50;99.00
44431;DHT22;30135;47.866;-4.222;2023-09-12T09:54:11;21.50;98.90
44431;DHT22;30135;47.866;-4.222;2023-09-12T09:56:53;21.50;98.80
44431;DHT22;30135;47.866;-4.222;2023-09-12T09:59:23;21.50;98.60
44431;DHT22;30135;47.866;-4.222;2023-09-12T10:01:56;21.50;98.50
44431;DHT22;30135;47.866;-4.222;2023-09-12T10:04:25;21.50;98.40
44431;DHT22;30135;47.866;-4.222;2023-09-12T10:06:56;21.40;98.30
44431;DHT22;30135;47.866;-4.222;2023-09-12T10:09:23;21.40;98.30
44431;DHT22;30135;47.866;-4.222;2023-09-12T10:11:52;21.40;98.30
44431;DHT22;30135;47.866;-4.222;2023-09-12T10:14:20;21.40;98.70
44431;DHT22;30135;47.866;-4.222;2023-09-12T10:16:48;21.40;98.40
44431;DHT22;30135;47.866;-4.222;2023-09-12T10:19:19;21.40;98.30
44431;DHT22;30135;47.866;-4.222;2023-09-12T10:24:44;21.50;98.00
44431;DHT22;30135;47.866;-4.222;2023-09-12T10:27:12;21.60;97.90
44431;DHT22;30135;47.866;-4.222;2023-09-12T10:29:39;21.60;97.70
44431;DHT22;30135;47.866;-4.222;2023-09-12T10:32:05;21.60;97.50
44431;DHT22;30135;47.866;-4.222;2023-09-12T10:34:35;21.70;97.40
44431;DHT22;30135;47.866;-4.222;2023-09-12T10:37:11;21.70;97.10
44431;DHT22;30135;47.866;-4.222;2023-09-12T10:39:43;21.70;97.00
44431;DHT22;30135;47.866;-4.222;2023-09-12T10:42:09;21.70;96.80
44431;DHT22;30135;47.866;-4.222;2023-09-12T10:44:38;21.70;96.50
44431;DHT22;30135;47.866;-4.222;2023-09-12T10:47:04;21.70;96.80
44431;DHT22;30135;47.866;-4.222;2023-09-12T10:49:31;21.70;96.20
44431;DHT22;30135;47.866;-4.222;2023-09-12T10:51:57;21.80;96.10
44431;DHT22;30135;47.866;-4.222;2023-09-12T10:54:25;21.80;96.00
44431;DHT22;30135;47.866;-4.222;2023-09-12T10:57:09;21.80;95.80
44431;DHT22;30135;47.866;-4.222;2023-09-12T11:00:09;21.80;95.60
44431;DHT22;30135;47.866;-4.222;2023-09-12T11:02:42;21.80;95.30
44431;DHT22;30135;47.866;-4.222;2023-09-12T11:08:00;21.70;95.10
44431;DHT22;30135;47.866;-4.222;2023-09-12T11:10:27;21.70;95.20
44431;DHT22;30135;47.866;-4.222;2023-09-12T11:12:57;21.70;95.20
44431;DHT22;30135;47.866;-4.222;2023-09-12T11:15:24;21.70;95.20
44431;DHT22;30135;47.866;-4.222;2023-09-12T11:18:06;21.70;95.20
44431;DHT22;30135;47.866;-4.222;2023-09-12T11:20:52;21.70;95.30
44431;DHT22;30135;47.866;-4.222;2023-09-12T11:23:27;21.70;95.00
44431;DHT22;30135;47.866;-4.222;2023-09-12T11:26:04;21.70;95.10
44431;DHT22;30135;47.866;-4.222;2023-09-12T11:28:36;21.80;94.90
44431;DHT22;30135;47.866;-4.222;2023-09-12T11:31:04;21.80;94.80
44431;DHT22;30135;47.866;-4.222;2023-09-12T11:33:31;21.90;94.50
44431;DHT22;30135;47.866;-4.222;2023-09-12T11:35:58;21.90;94.20
44431;DHT22;30135;47.866;-4.222;2023-09-12T11:38:29;21.90;94.00
44431;DHT22;30135;47.866;-4.222;2023-09-12T11:40:55;22.00;93.70
44431;DHT22;30135;47.866;-4.222;2023-09-12T11:43:23;22.00;93.50
44431;DHT22;30135;47.866;-4.222;2023-09-12T11:45:51;22.00;93.30
44431;DHT22;30135;47.866;-4.222;2023-09-12T11:48:18;22.10;93.10
44431;DHT22;30135;47.866;-4.222;2023-09-12T11:50:51;22.20;92.90
44431;DHT22;30135;47.866;-4.222;2023-09-12T11:53:20;22.20;92.70
44431;DHT22;30135;47.866;-4.222;2023-09-12T11:55:50;22.20;92.50
44431;DHT22;30135;47.866;-4.222;2023-09-12T11:58:20;22.20;92.20
44431;DHT22;30135;47.866;-4.222;2023-09-12T12:00:49;22.20;92.00
44431;DHT22;30135;47.866;-4.222;2023-09-12T12:03:17;22.20;91.80
44431;DHT22;30135;47.866;-4.222;2023-09-12T12:05:44;22.20;91.00
44431;DHT22;30135;47.866;-4.222;2023-09-12T12:08:11;22.20;91.70
44431;DHT22;30135;47.866;-4.222;2023-09-12T12:10:37;22.10;91.60
44431;DHT22;30135;47.866;-4.222;2023-09-12T12:13:19;22.10;91.40
44431;DHT22;30135;47.866;-4.222;2023-09-12T12:15:46;22.20;91.00
44431;DHT22;30135;47.866;-4.222;2023-09-12T12:18:12;22.20;91.10
44431;DHT22;30135;47.866;-4.222;2023-09-12T12:20:38;22.20;91.00
44431;DHT22;30135;47.866;-4.222;2023-09-12T12:23:04;22.20;90.80
44431;DHT22;30135;47.866;-4.222;2023-09-12T12:25:34;22.20;90.70
44431;DHT22;30135;47.866;-4.222;2023-09-12T12:28:01;22.20;90.50
44431;DHT22;30135;47.866;-4.222;2023-09-12T12:30:31;22.30;90.30
44431;DHT22;30135;47.866;-4.222;2023-09-12T12:33:01;22.30;90.10
44431;DHT22;30135;47.866;-4.222;2023-09-12T12:35:36;22.30;90.00
44431;DHT22;30135;47.866;-4.222;2023-09-12T12:38:03;22.30;89.70
44431;DHT22;30135;47.866;-4.222;2023-09-12T12:40:30;22.30;89.20
44431;DHT22;30135;47.866;-4.222;2023-09-12T12:42:56;22.20;89.00
44431;DHT22;30135;47.866;-4.222;2023-09-12T12:45:23;22.20;88.80
44431;DHT22;30135;47.866;-4.222;2023-09-12T12:48:00;22.20;88.40
44431;DHT22;30135;47.866;-4.222;2023-09-12T12:50:26;22.20;89.00
44431;DHT22;30135;47.866;-4.222;2023-09-12T12:52:52;22.10;88.40
44431;DHT22;30135;47.866;-4.222;2023-09-12T12:55:20;22.20;89.10
44431;DHT22;30135;47.866;-4.222;2023-09-12T12:57:48;22.10;88.20
44431;DHT22;30135;47.866;-4.222;2023-09-12T13:00:16;22.10;88.10
44431;DHT22;30135;47.866;-4.222;2023-09-12T13:02:44;22.10;88.20
44431;DHT22;30135;47.866;-4.222;2023-09-12T13:05:25;22.10;88.20
44431;DHT22;30135;47.866;-4.222;2023-09-12T13:07:51;22.20;88.10
44431;DHT22;30135;47.866;-4.222;2023-09-12T13:10:18;22.20;88.10
44431;DHT22;30135;47.866;-4.222;2023-09-12T13:12:44;22.30;87.70
44431;DHT22;30135;47.866;-4.222;2023-09-12T13:15:12;22.40;87.20
44431;DHT22;30135;47.866;-4.222;2023-09-12T13:17:39;22.40;86.10
44431;DHT22;30135;47.866;-4.222;2023-09-12T13:20:06;22.50;85.80
44431;DHT22;30135;47.866;-4.222;2023-09-12T13:22:34;22.50;85.30
44431;DHT22;30135;47.866;-4.222;2023-09-12T13:25:00;22.50;84.80
44431;DHT22;30135;47.866;-4.222;2023-09-12T13:27:27;22.60;85.20
44431;DHT22;30135;47.866;-4.222;2023-09-12T13:29:54;22.60;84.10
44431;DHT22;30135;47.866;-4.222;2023-09-12T13:32:20;22.60;83.50
44431;DHT22;30135;47.866;-4.222;2023-09-12T13:34:46;22.60;83.20
44431;DHT22;30135;47.866;-4.222;2023-09-12T13:37:13;22.70;83.00
44431;DHT22;30135;47.866;-4.222;2023-09-12T13:39:42;22.70;82.50
44431;DHT22;30135;47.866;-4.222;2023-09-12T13:42:14;22.80;82.40
44431;DHT22;30135;47.866;-4.222;2023-09-12T13:44:46;22.80;82.10
44431;DHT22;30135;47.866;-4.222;2023-09-12T13:47:13;22.80;81.60
44431;DHT22;30135;47.866;-4.222;2023-09-12T13:49:39;22.80;81.40
44431;DHT22;30135;47.866;-4.222;2023-09-12T13:52:05;22.70;81.10
44431;DHT22;30135;47.866;-4.222;2023-09-12T13:54:31;22.70;80.50
44431;DHT22;30135;47.866;-4.222;2023-09-12T13:56:57;22.70;80.40
44431;DHT22;30135;47.866;-4.222;2023-09-12T13:59:23;22.70;80.30
44431;DHT22;30135;47.866;-4.222;2023-09-12T14:01:49;22.70;80.20
44431;DHT22;30135;47.866;-4.222;2023-09-12T14:04:15;22.70;79.80
44431;DHT22;30135;47.866;-4.222;2023-09-12T14:06:44;22.70;79.60
44431;DHT22;30135;47.866;-4.222;2023-09-12T14:09:12;22.70;79.30
44431;DHT22;30135;47.866;-4.222;2023-09-12T14:11:38;22.60;79.20
44431;DHT22;30135;47.866;-4.222;2023-09-12T14:14:05;22.60;79.20
44431;DHT22;30135;47.866;-4.222;2023-09-12T14:16:31;22.60;79.30
44431;DHT22;30135;47.866;-4.222;2023-09-12T14:18:58;22.50;79.00
44431;DHT22;30135;47.866;-4.222;2023-09-12T14:21:24;22.50;79.10
44431;DHT22;30135;47.866;-4.222;2023-09-12T14:23:50;22.50;79.10
44431;DHT22;30135;47.866;-4.222;2023-09-12T14:26:16;22.50;79.10
44431;DHT22;30135;47.866;-4.222;2023-09-12T14:28:42;22.50;78.70
44431;DHT22;30135;47.866;-4.222;2023-09-12T14:31:08;22.40;78.80
44431;DHT22;30135;47.866;-4.222;2023-09-12T14:33:39;22.30;78.10
44431;DHT22;30135;47.866;-4.222;2023-09-12T14:36:09;22.30;77.50
44431;DHT22;30135;47.866;-4.222;2023-09-12T14:38:35;22.30;77.20
44431;DHT22;30135;47.866;-4.222;2023-09-12T14:41:02;22.20;76.30
44431;DHT22;30135;47.866;-4.222;2023-09-12T14:43:28;22.20;77.70
44431;DHT22;30135;47.866;-4.222;2023-09-12T14:46:03;22.20;77.20
44431;DHT22;30135;47.866;-4.222;2023-09-12T14:48:31;22.10;76.80
44431;DHT22;30135;47.866;-4.222;2023-09-12T14:50:59;22.10;76.80
44431;DHT22;30135;47.866;-4.222;2023-09-12T14:53:27;22.10;76.90
44431;DHT22;30135;47.866;-4.222;2023-09-12T14:55:53;22.10;76.80
44431;DHT22;30135;47.866;-4.222;2023-09-12T14:58:19;22.10;76.30
44431;DHT22;30135;47.866;-4.222;2023-09-12T15:00:45;22.10;76.40
44431;DHT22;30135;47.866;-4.222;2023-09-12T15:03:11;22.00;76.30
44431;DHT22;30135;47.866;-4.222;2023-09-12T15:05:37;22.00;76.10
44431;DHT22;30135;47.866;-4.222;2023-09-12T15:08:04;22.00;76.40
44431;DHT22;30135;47.866;-4.222;2023-09-12T15:10:32;22.10;76.40
44431;DHT22;30135;47.866;-4.222;2023-09-12T15:12:58;22.00;76.40
44431;DHT22;30135;47.866;-4.222;2023-09-12T15:15:24;22.00;75.90
44431;DHT22;30135;47.866;-4.222;2023-09-12T15:17:50;22.00;75.90
44431;DHT22;30135;47.866;-4.222;2023-09-12T15:20:16;22.00;75.80
44431;DHT22;30135;47.866;-4.222;2023-09-12T15:22:42;21.90;75.50
44431;DHT22;30135;47.866;-4.222;2023-09-12T15:25:09;22.00;76.40
44431;DHT22;30135;47.866;-4.222;2023-09-12T15:27:35;22.00;76.00
44431;DHT22;30135;47.866;-4.222;2023-09-12T15:30:02;22.00;76.20